Time,TemperatureF,DewpointF,PressureIn,WindDirection,WindDirectionDegrees,WindSpeedMPH,WindSpeedGustMPH,Humidity,HourlyPrecipIn,Conditions,Clouds,dailyrainin,SoftwareType,DateUTC
2013-04-29 00:09:00,56.2,42.0,30.23,South,183,2.0,2.0,60,0.00,,,0.00,weatherlink.com 1.10,2013-04-29 04:09:00,
2013-04-29 00:24:00,56.2,43.0,30.23,South,191,0.0,4.0,62,0.00,,,0.00,weatherlink.com 1.10,2013-04-29 04:24:00,
2013-04-29 00:39:00,56.2,44.0,30.22,South,174,0.0,0.0,63,0.00,,,0.00,weatherlink.com 1.10,2013-04-29 04:39:00,
2013-04-29 00:54:00,56.3,44.0,30.22,South,172,0.0,0.0,63,0.00,,,0.00,weatherlink.com 1.10,2013-04-29 04:54:00,
2013-04-29 01:09:00,56.4,44.0,30.22,South,179,0.0,0.0,64,0.00,,,0.00,weatherlink.com 1.10,2013-04-29 05:09:00,
2013-04-29 01:25:00,56.3,44.0,30.21,South,186,0.0,0.0,64,0.00,,,0.00,weatherlink.com 1.10,2013-04-29 05:25:00,
2013-04-29 01:39:00,56.3,45.0,30.21,SSW,194,0.0,1.0,65,0.00,,,0.00,weatherlink.com 1.10,2013-04-29 05:39:00,
2013-04-29 01:54:00,56.3,45.0,30.21,SSW,201,0.0,2.0,66,0.00,,,0.00,weatherlink.com 1.10,2013-04-29 05:54:00,
2013-04-29 02:09:00,56.0,45.0,30.21,SSW,197,0.0,2.0,67,0.00,,,0.00,weatherlink.com 1.10,2013-04-29 06:09:00,
2013-04-29 02:24:00,55.8,46.0,30.21,SSW,203,0.0,1.0,69,0.00,,,0.00,weatherlink.com 1.10,2013-04-29 06:24:00,
2013-04-29 02:39:00,55.7,46.0,30.20,South,190,0.0,1.0,70,0.00,,,0.00,weatherlink.com 1.10,2013-04-29 06:39:00,
2013-04-29 02:55:00,55.8,47.0,30.20,South,190,0.0,1.0,71,0.00,,,0.00,weatherlink.com 1.10,2013-04-29 06:55:00,
2013-04-29 03:10:00,55.9,47.0,30.19,South,188,0.0,1.0,73,0.00,,,0.00,weatherlink.com 1.10,2013-04-29 07:10:00,
2013-04-29 03:25:00,55.5,48.0,30.19,South,191,0.0,3.0,75,0.00,,,0.00,weatherlink.com 1.10,2013-04-29 07:25:00,
2013-04-29 03:40:00,55.2,48.0,30.19,SW,214,0.0,2.0,77,0.00,,,0.00,weatherlink.com 1.10,2013-04-29 07:40:00,
2013-04-29 03:55:00,55.0,49.0,30.19,SSW,194,0.0,1.0,79,0.00,,,0.00,weatherlink.com 1.10,2013-04-29 07:55:00,
2013-04-29 04:11:00,54.8,49.0,30.19,SSW,193,0.0,1.0,81,0.00,,,0.00,weatherlink.com 1.10,2013-04-29 08:11:00,
2013-04-29 04:25:00,54.5,49.0,30.19,South,183,0.0,2.0,82,0.00,,,0.00,weatherlink.com 1.10,2013-04-29 08:25:00,
2013-04-29 04:40:00,54.3,49.0,30.19,South,184,0.0,3.0,82,0.00,,,0.00,weatherlink.com 1.10,2013-04-29 08:40:00,
2013-04-29 04:55:00,54.3,49.0,30.19,South,172,0.0,1.0,83,0.00,,,0.00,weatherlink.com 1.10,2013-04-29 08:55:00,
2013-04-29 05:10:00,54.1,49.0,30.19,South,172,0.0,0.0,84,0.01,,,0.01,weatherlink.com 1.10,2013-04-29 09:10:00,
2013-04-29 05:25:00,54.0,49.0,30.19,South,186,0.0,3.0,84,0.01,,,0.01,weatherlink.com 1.10,2013-04-29 09:25:00,
2013-04-29 05:40:00,53.9,50.0,30.20,South,184,0.0,1.0,85,0.01,,,0.01,weatherlink.com 1.10,2013-04-29 09:40:00,
2013-04-29 05:55:00,53.7,49.0,30.20,South,184,1.0,3.0,85,0.02,,,0.02,weatherlink.com 1.10,2013-04-29 09:55:00,
2013-04-29 06:10:00,53.5,50.0,30.20,South,186,0.0,1.0,86,0.02,,,0.03,weatherlink.com 1.10,2013-04-29 10:10:00,
2013-04-29 06:25:00,53.3,49.0,30.20,SSW,203,0.0,2.0,86,0.02,,,0.03,weatherlink.com 1.10,2013-04-29 10:25:00,
2013-04-29 06:40:00,53.3,49.0,30.20,SSE,161,0.0,2.0,86,0.02,,,0.03,weatherlink.com 1.10,2013-04-29 10:40:00,
2013-04-29 06:55:00,53.3,49.0,30.21,SW,220,0.0,2.0,86,0.00,,,0.03,weatherlink.com 1.10,2013-04-29 10:55:00,
2013-04-29 07:10:00,53.4,49.0,30.22,South,170,0.0,4.0,84,0.00,,,0.03,weatherlink.com 1.10,2013-04-29 11:10:00,
2013-04-29 07:25:00,53.6,49.0,30.22,SSW,193,1.0,4.0,83,0.00,,,0.03,weatherlink.com 1.10,2013-04-29 11:25:00,
2013-04-29 07:40:00,53.8,48.0,30.22,SW,225,1.0,5.0,82,0.00,,,0.03,weatherlink.com 1.10,2013-04-29 11:40:00,
2013-04-29 07:55:00,53.6,48.0,30.23,South,186,2.0,4.0,82,0.00,,,0.03,weatherlink.com 1.10,2013-04-29 11:55:00,
2013-04-29 08:10:00,53.7,48.0,30.23,SW,214,0.0,6.0,82,0.00,,,0.03,weatherlink.com 1.10,2013-04-29 12:10:00,
2013-04-29 08:25:00,53.4,48.0,30.23,SSE,157,1.0,6.0,83,0.01,,,0.04,weatherlink.com 1.10,2013-04-29 12:25:00,
2013-04-29 08:40:00,53.3,48.0,30.23,SSE,163,2.0,6.0,83,0.01,,,0.04,weatherlink.com 1.10,2013-04-29 12:40:00,
2013-04-29 08:55:00,53.5,49.0,30.23,South,183,0.0,5.0,83,0.01,,,0.04,weatherlink.com 1.10,2013-04-29 12:55:00,
2013-04-29 09:10:00,53.6,48.0,30.22,SSE,149,3.0,6.0,81,0.02,,,0.05,weatherlink.com 1.10,2013-04-29 13:10:00,
2013-04-29 09:25:00,53.6,48.0,30.23,SSE,161,1.0,8.0,81,0.01,,,0.05,weatherlink.com 1.10,2013-04-29 13:25:00,
2013-04-29 09:40:00,53.8,48.0,30.22,SW,226,2.0,7.0,82,0.01,,,0.05,weatherlink.com 1.10,2013-04-29 13:40:00,
2013-04-29 09:55:00,54.0,49.0,30.22,South,174,0.0,6.0,82,0.01,,,0.05,weatherlink.com 1.10,2013-04-29 13:55:00,
2013-04-29 10:10:00,53.8,49.0,30.22,SSE,161,2.0,5.0,83,0.00,,,0.05,weatherlink.com 1.10,2013-04-29 14:10:00,
2013-04-29 10:25:00,53.6,49.0,30.22,WSW,240,1.0,6.0,84,0.00,,,0.05,weatherlink.com 1.10,2013-04-29 14:25:00,
2013-04-29 10:40:00,53.7,49.0,30.22,SSW,207,1.0,4.0,83,0.00,,,0.05,weatherlink.com 1.10,2013-04-29 14:40:00,
2013-04-29 10:55:00,53.5,48.0,30.22,South,183,1.0,6.0,81,0.01,,,0.06,weatherlink.com 1.10,2013-04-29 14:55:00,
2013-04-29 11:10:00,53.6,49.0,30.22,South,174,0.0,3.0,83,0.01,,,0.06,weatherlink.com 1.10,2013-04-29 15:10:00,
2013-04-29 11:25:00,53.5,48.0,30.22,WSW,252,1.0,5.0,81,0.02,,,0.07,weatherlink.com 1.10,2013-04-29 15:25:00,
2013-04-29 11:40:00,53.5,48.0,30.22,SSW,200,0.0,2.0,81,0.02,,,0.07,weatherlink.com 1.10,2013-04-29 15:40:00,
2013-04-29 11:55:00,53.7,48.0,30.22,SSW,194,1.0,5.0,82,0.02,,,0.08,weatherlink.com 1.10,2013-04-29 15:55:00,
2013-04-29 12:10:00,53.7,49.0,30.21,South,174,1.0,5.0,84,0.03,,,0.09,weatherlink.com 1.10,2013-04-29 16:10:00,
2013-04-29 12:25:00,53.8,49.0,30.21,South,191,0.0,3.0,85,0.03,,,0.10,weatherlink.com 1.10,2013-04-29 16:25:00,
2013-04-29 12:39:00,54.0,50.0,30.21,SSW,198,2.0,6.0,86,0.04,,,0.11,weatherlink.com 1.10,2013-04-29 16:39:00,
2013-04-29 12:54:00,53.9,50.0,30.20,SSW,212,5.0,7.0,85,0.03,,,0.11,weatherlink.com 1.10,2013-04-29 16:54:00,
2013-04-29 13:09:00,53.6,50.0,30.21,South,191,0.0,8.0,86,0.03,,,0.12,weatherlink.com 1.10,2013-04-29 17:09:00,
2013-04-29 13:24:00,53.4,50.0,30.21,SSW,211,0.0,5.0,87,0.03,,,0.13,weatherlink.com 1.10,2013-04-29 17:24:00,
2013-04-29 13:39:00,53.2,50.0,30.21,South,191,0.0,2.0,88,0.03,,,0.14,weatherlink.com 1.10,2013-04-29 17:39:00,
2013-04-29 13:54:00,53.2,50.0,30.20,South,179,1.0,2.0,87,0.04,,,0.15,weatherlink.com 1.10,2013-04-29 17:54:00,
2013-04-29 14:09:00,53.5,50.0,30.21,SSW,200,2.0,4.0,88,0.03,,,0.15,weatherlink.com 1.10,2013-04-29 18:09:00,
2013-04-29 14:24:00,53.6,50.0,30.21,SSW,193,1.0,9.0,87,0.03,,,0.16,weatherlink.com 1.10,2013-04-29 18:24:00,
2013-04-29 14:39:00,53.7,51.0,30.21,South,184,0.0,2.0,89,0.02,,,0.16,weatherlink.com 1.10,2013-04-29 18:39:00,
2013-04-29 14:54:00,53.2,50.0,30.20,South,186,0.0,5.0,89,0.02,,,0.17,weatherlink.com 1.10,2013-04-29 18:54:00,
2013-04-29 15:09:00,53.0,50.0,30.20,SSW,200,1.0,5.0,89,0.02,,,0.17,weatherlink.com 1.10,2013-04-29 19:09:00,
2013-04-29 15:24:00,53.4,50.0,30.19,SSW,203,1.0,4.0,88,0.02,,,0.18,weatherlink.com 1.10,2013-04-29 19:24:00,
2013-04-29 15:39:00,53.8,50.0,30.19,South,176,0.0,3.0,87,0.02,,,0.18,weatherlink.com 1.10,2013-04-29 19:39:00,
2013-04-29 15:54:00,54.2,51.0,30.18,West,267,0.0,1.0,87,0.01,,,0.18,weatherlink.com 1.10,2013-04-29 19:54:00,
2013-04-29 16:10:00,54.5,50.0,30.18,South,173,0.0,4.0,85,0.01,,,0.18,weatherlink.com 1.10,2013-04-29 20:10:00,
2013-04-29 16:25:00,54.9,50.0,30.18,SSW,210,0.0,3.0,84,0.00,,,0.18,weatherlink.com 1.10,2013-04-29 20:25:00,
2013-04-29 16:40:00,55.2,50.0,30.18,SW,215,0.0,4.0,82,0.00,,,0.18,weatherlink.com 1.10,2013-04-29 20:40:00,
2013-04-29 16:55:00,55.6,50.0,30.18,SSE,162,0.0,3.0,81,0.00,,,0.18,weatherlink.com 1.10,2013-04-29 20:55:00,
2013-04-29 17:10:00,55.8,49.0,30.18,South,186,0.0,5.0,79,0.00,,,0.18,weatherlink.com 1.10,2013-04-29 21:10:00,
2013-04-29 17:25:00,56.1,49.0,30.18,South,176,0.0,2.0,78,0.00,,,0.18,weatherlink.com 1.10,2013-04-29 21:25:00,
2013-04-29 17:40:00,56.2,49.0,30.18,SSW,205,2.0,5.0,77,0.00,,,0.18,weatherlink.com 1.10,2013-04-29 21:40:00,
2013-04-29 17:55:00,56.1,48.0,30.18,SSW,200,1.0,4.0,75,0.00,,,0.18,weatherlink.com 1.10,2013-04-29 21:55:00,
2013-04-29 18:10:00,55.9,48.0,30.18,SW,217,1.0,3.0,75,0.00,,,0.18,weatherlink.com 1.10,2013-04-29 22:10:00,
2013-04-29 18:25:00,55.7,48.0,30.18,South,181,1.0,4.0,74,0.00,,,0.18,weatherlink.com 1.10,2013-04-29 22:25:00,
2013-04-29 18:40:00,55.6,47.0,30.18,SSW,204,0.0,3.0,74,0.00,,,0.18,weatherlink.com 1.10,2013-04-29 22:40:00,
2013-04-29 18:55:00,55.4,47.0,30.18,SSW,208,2.0,4.0,74,0.00,,,0.18,weatherlink.com 1.10,2013-04-29 22:55:00,
2013-04-29 19:10:00,55.3,48.0,30.19,SSW,197,3.0,5.0,75,0.00,,,0.18,weatherlink.com 1.10,2013-04-29 23:10:00,
2013-04-29 19:25:00,54.5,48.0,30.19,South,184,1.0,5.0,79,0.00,,,0.18,weatherlink.com 1.10,2013-04-29 23:25:00,
2013-04-29 19:40:00,54.6,48.0,30.19,SW,214,0.0,5.0,77,0.00,,,0.18,weatherlink.com 1.10,2013-04-29 23:40:00,
2013-04-29 19:55:00,54.7,48.0,30.19,South,180,1.0,4.0,77,0.00,,,0.18,weatherlink.com 1.10,2013-04-29 23:55:00,
2013-04-29 20:10:00,54.6,48.0,30.20,South,184,0.0,5.0,78,0.00,,,0.18,weatherlink.com 1.10,2013-04-30 00:10:00,
2013-04-29 20:25:00,54.4,48.0,30.20,SSE,167,1.0,6.0,79,0.00,,,0.18,weatherlink.com 1.10,2013-04-30 00:25:00,
2013-04-29 20:40:00,54.6,48.0,30.20,North,356,0.0,6.0,78,0.00,,,0.18,weatherlink.com 1.10,2013-04-30 00:40:00,
2013-04-29 20:55:00,54.7,48.0,30.21,SSW,198,1.0,2.0,78,0.00,,,0.18,weatherlink.com 1.10,2013-04-30 00:55:00,
2013-04-29 21:10:00,54.8,48.0,30.22,SSE,151,2.0,4.0,78,0.00,,,0.18,weatherlink.com 1.10,2013-04-30 01:10:00,
2013-04-29 21:25:00,54.7,48.0,30.22,WSW,248,2.0,7.0,77,0.00,,,0.18,weatherlink.com 1.10,2013-04-30 01:25:00,
2013-04-29 21:40:00,54.1,49.0,30.22,South,190,0.0,9.0,84,0.00,,,0.18,weatherlink.com 1.10,2013-04-30 01:40:00,
2013-04-29 21:55:00,53.2,50.0,30.22,SW,214,2.0,4.0,87,0.00,,,0.18,weatherlink.com 1.10,2013-04-30 01:55:00,
2013-04-29 22:10:00,53.7,49.0,30.22,SSW,210,3.0,5.0,84,0.00,,,0.18,weatherlink.com 1.10,2013-04-30 02:10:00,
2013-04-29 22:25:00,53.9,49.0,30.22,SSW,207,4.0,6.0,83,0.00,,,0.18,weatherlink.com 1.10,2013-04-30 02:25:00,
2013-04-29 22:40:00,54.3,49.0,30.21,SW,217,0.0,4.0,81,0.00,,,0.18,weatherlink.com 1.10,2013-04-30 02:40:00,
2013-04-29 22:55:00,54.3,49.0,30.21,SSW,197,0.0,4.0,81,0.00,,,0.18,weatherlink.com 1.10,2013-04-30 02:55:00,
2013-04-29 23:10:00,54.2,49.0,30.21,South,191,0.0,3.0,81,0.00,,,0.18,weatherlink.com 1.10,2013-04-30 03:10:00,
2013-04-29 23:25:00,54.0,48.0,30.22,SSW,211,0.0,3.0,81,0.00,,,0.18,weatherlink.com 1.10,2013-04-30 03:25:00,
2013-04-29 23:40:00,53.8,48.0,30.21,SSW,212,1.0,2.0,82,0.00,,,0.18,weatherlink.com 1.10,2013-04-30 03:40:00,
2013-04-29 23:55:00,53.7,48.0,30.21,SSW,198,0.0,1.0,82,0.00,,,0.18,weatherlink.com 1.10,2013-04-30 03:55:00,